createdAt,value
2018-11-25T00:04:50.895Z,56.33
2018-11-25T00:09:53.076Z,60.53
2018-11-25T00:14:55.212Z,62.93
2018-11-25T00:19:57.394Z,58.60
2018-11-25T00:24:59.607Z,56.10
2018-11-25T00:30:01.812Z,59.63
2018-11-25T00:35:03.967Z,60.63
2018-11-25T00:40:07.922Z,56.37
2018-11-25T00:45:12.497Z,63.90
2018-11-25T00:50:14.732Z,55.73
2018-11-25T00:55:17.202Z,55.93
2018-11-25T01:00:19.538Z,52.77
2018-11-25T01:05:21.729Z,52.70
2018-11-25T01:10:23.890Z,54.30
2018-11-25T01:15:26.063Z,50.70
2018-11-25T01:20:28.205Z,50.70
2018-11-25T01:25:30.356Z,48.20
2018-11-25T01:30:32.523Z,51.90
2018-11-25T01:35:34.668Z,50.03
2018-11-25T01:40:36.782Z,52.30
2018-11-25T01:45:38.950Z,59.47
2018-11-25T01:50:41.099Z,50.90
2018-11-25T01:55:43.270Z,54.20
2018-11-25T02:00:45.421Z,63.23
2018-11-25T02:05:47.577Z,57.35
2018-11-25T02:10:49.733Z,56.97
2018-11-25T02:15:51.833Z,49.60
2018-11-25T02:20:55.551Z,58.80
2018-11-25T02:25:57.694Z,49.73
2018-11-25T02:30:59.851Z,59.23
2018-11-25T02:36:01.976Z,56.70
2018-11-25T02:41:04.177Z,49.50
2018-11-25T02:46:06.361Z,57.57
2018-11-25T02:51:08.506Z,57.00
2018-11-25T02:56:10.634Z,61.80
2018-11-25T03:01:12.726Z,54.20
2018-11-25T03:06:14.872Z,52.70
2018-11-25T03:11:17.027Z,49.93
2018-11-25T03:16:19.199Z,59.57
2018-11-25T03:21:21.343Z,53.30
2018-11-25T03:26:23.484Z,57.80
2018-11-25T03:31:25.614Z,58.47
2018-11-25T03:36:27.732Z,58.03
2018-11-25T03:41:29.866Z,53.60
2018-11-25T03:46:32.052Z,55.30
2018-11-25T03:51:34.219Z,51.97
2018-11-25T03:56:36.346Z,48.37
2018-11-25T04:01:38.482Z,42.20
2018-11-25T04:06:40.600Z,39.10
2018-11-25T04:11:42.728Z,38.50
2018-11-25T04:16:44.869Z,34.00
2018-11-25T04:21:47.007Z,31.70
2018-11-25T04:26:49.143Z,32.43
2018-11-25T04:31:51.263Z,29.37
2018-11-25T04:36:53.382Z,36.73
2018-11-25T04:41:55.486Z,26.17
2018-11-25T04:46:57.620Z,30.67
2018-11-25T04:51:59.733Z,25.80
2018-11-25T04:57:01.867Z,24.03
2018-11-25T05:02:03.999Z,27.97
2018-11-25T05:07:06.265Z,26.50
2018-11-25T05:12:08.390Z,31.43
2018-11-25T05:17:10.535Z,27.37
2018-11-25T05:22:12.670Z,29.47
2018-11-25T05:27:14.816Z,27.67
2018-11-25T05:32:16.938Z,33.07
2018-11-25T05:37:19.068Z,30.60
2018-11-25T05:42:21.159Z,36.17
2018-11-25T05:47:23.285Z,32.40
2018-11-25T05:52:25.448Z,28.43
2018-11-25T05:57:27.548Z,30.83
2018-11-25T06:02:29.651Z,30.03
2018-11-25T06:07:31.755Z,30.70
2018-11-25T06:12:33.864Z,25.63
2018-11-25T06:17:35.975Z,31.63
2018-11-25T06:22:38.095Z,27.90
2018-11-25T06:27:40.299Z,25.70
2018-11-25T06:32:42.447Z,24.60
2018-11-25T06:37:44.644Z,21.83
2018-11-25T06:42:46.850Z,21.43
2018-11-25T06:47:49.036Z,20.40
2018-11-25T06:52:51.194Z,19.77
2018-11-25T06:57:53.290Z,19.97
2018-11-25T07:02:55.420Z,26.27
2018-11-25T07:07:57.556Z,22.23
2018-11-25T07:12:59.666Z,25.73
2018-11-25T07:18:01.788Z,21.13
2018-11-25T07:23:03.983Z,21.33
2018-11-25T07:28:18.044Z,18.73
2018-11-25T07:33:08.311Z,18.33
2018-11-25T07:38:10.443Z,21.50
2018-11-25T07:43:12.593Z,19.63
2018-11-25T07:48:14.807Z,21.93
2018-11-25T07:53:16.954Z,17.80
2018-11-25T07:58:19.088Z,18.13
2018-11-25T08:03:21.253Z,23.60
2018-11-25T08:08:23.351Z,16.40
2018-11-25T08:13:25.508Z,16.77
2018-11-25T08:18:27.658Z,20.13
2018-11-25T08:23:29.800Z,14.70
2018-11-25T08:28:31.944Z,18.43
2018-11-25T08:33:34.061Z,12.10
2018-11-25T08:38:36.208Z,12.80
2018-11-25T08:43:38.349Z,14.17
2018-11-25T08:48:40.546Z,13.60
2018-11-25T08:53:42.692Z,15.83
2018-11-25T08:58:44.820Z,12.10
2018-11-25T09:03:46.956Z,16.03
2018-11-25T09:08:49.122Z,15.57
2018-11-25T09:13:51.241Z,11.60
2018-11-25T09:18:53.399Z,13.03
2018-11-25T09:23:55.588Z,13.23
2018-11-25T09:28:57.785Z,21.27
2018-11-25T09:33:59.933Z,10.77
2018-11-25T09:39:02.147Z,16.67
2018-11-25T09:44:04.611Z,12.63
2018-11-25T09:49:06.861Z,7.77
2018-11-25T09:54:09.014Z,9.73
2018-11-25T09:59:11.978Z,10.57
2018-11-25T10:04:14.191Z,7.37
2018-11-25T10:09:16.378Z,8.53
2018-11-25T10:14:18.512Z,8.97
2018-11-25T10:19:20.696Z,12.20
2018-11-25T10:24:22.841Z,7.43
2018-11-25T10:29:24.983Z,13.10
2018-11-25T10:34:27.189Z,11.30
2018-11-25T10:39:29.345Z,13.97
2018-11-25T10:44:31.540Z,16.43
2018-11-25T10:49:33.730Z,18.53
2018-11-25T10:54:35.893Z,19.30
2018-11-25T10:59:38.055Z,18.87
2018-11-25T11:05:45.207Z,19.23
2018-11-25T11:10:47.343Z,17.33
2018-11-25T11:15:49.516Z,18.00
2018-11-25T11:20:51.654Z,18.00
2018-11-25T11:25:53.800Z,14.87
2018-11-25T11:30:55.997Z,14.10
2018-11-25T11:35:58.181Z,19.60
2018-11-25T11:41:00.362Z,18.67
2018-11-25T11:46:02.524Z,17.87
2018-11-25T11:51:04.888Z,16.33
2018-11-25T11:56:07.046Z,19.63
2018-11-25T12:01:09.219Z,19.90
2018-11-25T12:06:11.404Z,23.10
2018-11-25T12:11:13.585Z,24.67
2018-11-25T12:16:15.765Z,23.70
2018-11-25T12:21:17.922Z,31.50
2018-11-25T12:26:20.116Z,33.57
2018-11-25T12:31:22.278Z,34.63
2018-11-25T12:36:25.134Z,20.60
2018-11-25T12:41:27.277Z,32.80
2018-11-25T12:46:29.597Z,35.77
2018-11-25T12:51:31.789Z,34.30
2018-11-25T12:56:33.947Z,39.00
2018-11-25T13:01:36.116Z,43.73
2018-11-25T13:06:38.253Z,32.87
2018-11-25T13:11:40.406Z,30.07
2018-11-25T13:16:42.839Z,27.23
2018-11-25T13:21:46.543Z,33.77
2018-11-25T13:26:48.901Z,34.70
2018-11-25T13:31:51.225Z,37.00
2018-11-25T13:36:53.424Z,33.13
2018-11-25T13:41:55.845Z,32.87
2018-11-25T13:46:58.008Z,41.50
2018-11-25T13:52:00.329Z,40.10
2018-11-25T13:57:03.316Z,38.70
2018-11-25T14:02:05.735Z,36.83
2018-11-25T14:07:07.921Z,44.40
2018-11-25T14:12:10.088Z,49.40
2018-11-25T14:17:12.317Z,39.17
2018-11-25T14:22:14.541Z,40.03
2018-11-25T14:27:16.787Z,28.97
2018-11-25T14:32:19.015Z,33.20
2018-11-25T14:37:21.186Z,30.17
2018-11-25T14:42:23.383Z,29.20
2018-11-25T14:47:25.570Z,29.80
2018-11-25T14:52:27.767Z,38.93
2018-11-25T14:57:29.939Z,34.50
2018-11-25T15:02:32.171Z,33.40
2018-11-25T15:07:34.389Z,40.50
2018-11-25T15:12:36.615Z,38.97
2018-11-25T15:17:39.104Z,40.83
2018-11-25T15:22:44.008Z,39.43
2018-11-25T15:27:46.285Z,38.43
2018-11-25T15:32:48.497Z,37.37
2018-11-25T15:37:51.565Z,42.03
2018-11-25T15:42:53.736Z,49.03
2018-11-25T15:47:58.459Z,40.10
2018-11-25T15:53:00.752Z,37.17
2018-11-25T15:58:02.991Z,40.73
2018-11-25T16:03:07.184Z,40.00
2018-11-25T16:08:09.415Z,34.33
2018-11-25T16:13:11.630Z,37.10
2018-11-25T16:18:13.919Z,32.20
2018-11-25T16:23:16.088Z,32.00
2018-11-25T16:28:22.725Z,29.20
2018-11-25T16:33:24.921Z,38.97
2018-11-25T16:38:27.160Z,38.93
2018-11-25T16:43:29.360Z,33.57
2018-11-25T16:48:31.548Z,43.13
2018-11-25T16:53:33.802Z,42.27
2018-11-25T16:58:35.961Z,38.83
2018-11-25T17:03:38.120Z,43.83
2018-11-25T17:08:41.642Z,37.53
2018-11-25T17:13:43.845Z,40.67
2018-11-25T17:18:46.072Z,47.07
2018-11-25T17:23:48.220Z,41.80
2018-11-25T17:28:50.409Z,43.03
2018-11-25T17:33:52.640Z,45.83
2018-11-25T17:38:54.847Z,47.07
2018-11-25T17:43:57.070Z,42.80
2018-11-25T17:48:59.293Z,40.67
2018-11-25T17:54:01.575Z,42.67
2018-11-25T17:59:03.862Z,23.00
2018-11-25T18:04:06.247Z,20.37
2018-11-25T18:09:09.894Z,12.77
2018-11-25T18:14:12.181Z,13.23
2018-11-25T18:19:21.212Z,12.30
2018-11-25T18:24:24.971Z,10.23
2018-11-25T18:29:30.161Z,11.60
2018-11-25T18:34:33.508Z,11.53
2018-11-25T18:39:36.434Z,15.13
2018-11-25T18:44:39.440Z,16.83
2018-11-25T18:49:41.912Z,11.53
2018-11-25T18:54:45.122Z,10.80
2018-11-25T18:59:48.112Z,8.40
2018-11-25T19:04:51.236Z,5.47
2018-11-25T19:09:54.015Z,9.13
2018-11-25T19:14:56.353Z,6.20
2018-11-25T19:20:01.939Z,6.27
2018-11-25T19:25:09.497Z,6.77
2018-11-25T19:30:16.292Z,7.53
2018-11-25T19:35:22.981Z,3.57
2018-11-25T19:40:29.603Z,2.87
2018-11-25T19:45:34.386Z,6.70
2018-11-25T19:50:40.366Z,9.53
2018-11-25T19:55:47.062Z,4.37
2018-11-25T20:00:53.926Z,6.80
2018-11-25T20:06:00.026Z,4.20
2018-11-25T20:11:06.123Z,8.50
2018-11-25T20:16:18.512Z,6.27
2018-11-25T20:21:29.522Z,4.53
2018-11-25T20:26:35.717Z,6.33
2018-11-25T20:31:41.601Z,4.73
2018-11-25T20:36:47.753Z,5.13
2018-11-25T20:41:54.479Z,3.17
2018-11-25T20:47:07.388Z,5.97
2018-11-25T20:52:18.185Z,6.90
2018-11-25T20:57:23.671Z,3.17
2018-11-25T21:02:29.322Z,2.50
2018-11-25T21:07:33.178Z,1.70
2018-11-25T21:12:36.664Z,3.30
2018-11-25T21:17:39.914Z,5.60
2018-11-25T21:22:42.188Z,2.57
2018-11-25T21:27:44.548Z,4.13
2018-11-25T21:32:47.833Z,3.77
2018-11-25T21:37:50.894Z,3.50
2018-11-25T21:42:53.079Z,8.20
2018-11-25T21:47:55.330Z,11.37
2018-11-25T21:52:57.480Z,11.63
2018-11-25T21:57:59.661Z,7.10
2018-11-25T22:03:01.821Z,8.00
2018-11-25T22:08:04.356Z,5.80
2018-11-25T22:13:06.501Z,22.07
2018-11-25T22:18:08.642Z,9.07
2018-11-25T22:23:10.806Z,8.07
2018-11-25T22:28:12.952Z,7.77
2018-11-25T22:33:15.051Z,11.73
2018-11-25T22:38:17.221Z,16.43
2018-11-25T22:43:19.397Z,14.30
2018-11-25T22:48:21.536Z,12.53
2018-11-25T22:53:24.401Z,10.70
2018-11-25T22:58:27.340Z,16.93
2018-11-25T23:03:29.498Z,9.17
2018-11-25T23:08:31.652Z,11.33
2018-11-25T23:13:33.997Z,7.73
2018-11-25T23:18:36.197Z,5.93
2018-11-25T23:23:38.316Z,9.50
2018-11-25T23:28:40.505Z,7.40
2018-11-25T23:33:42.811Z,6.17
2018-11-25T23:38:44.922Z,8.33
2018-11-25T23:43:47.138Z,15.43
2018-11-25T23:48:49.522Z,10.50
2018-11-25T23:53:51.623Z,10.80
2018-11-25T23:58:53.782Z,10.90
